Mojo_ii — FAB2678 — position and weather

sailwx.info

Track history (hours):
 
Tides and Currents Weather Stations Pressure Air Temp Water Temp Dewpoint Dewpoint Depression Visibility Wind Speed Wind Dir Waves Ship Positions

Mojo_ii

Last reported at 2017-Sep-14 13:30 UTC. Time now 2017-Sep-24 03:36 UTC.
Position N 28°26' W 016°13'.
Warning: this ship's position is 9 days out of date.

Type: Sailing vessel. MMSI: 227185390.

Date/timePositionNaut miles runAvg speedWind from/ knotsBaromVisibWave heightAir tempDewpointWater temp
2017-Sep-14 13:30N 28°26' W 016°13'35 1.8
2017-Sep-13 17:45N 28°11' W 015°37'3 6.6
2017-Sep-13 17:17N 28°11' W 015°34'2 6.3
2017-Sep-13 16:57N 28°11' W 015°32'3 6.1
2017-Sep-13 16:28N 28°12' W 015°28'3 5.5
2017-Sep-13 15:56N 28°12' W 015°25'3 5.8
2017-Sep-13 15:26N 28°11' W 015°22'3 5.2
2017-Sep-13 14:55N 28°11' W 015°19'3 5.5
2017-Sep-13 14:25N 28°10' W 015°16'2 5.6
2017-Sep-13 14:01N 28°10' W 015°13'3 5.6
2017-Sep-13 13:30N 28°09' W 015°10'3 5.4
2017-Sep-13 13:00N 28°09' W 015°07'3 5.3
2017-Sep-13 12:30N 28°08' W 015°04'3 5.5
2017-Sep-13 12:00N 28°08' W 015°01'3 5.7
2017-Sep-13 11:30N 28°08' W 014°58'3 5.8
2017-Sep-13 11:00N 28°07' W 014°54'3 5.7
2017-Sep-13 10:30N 28°07' W 014°51'  
2017-Sep-06 10:40N 28°54' W 013°39'1 6.8
2017-Sep-06 10:28N 28°54' W 013°37'4 6.9
2017-Sep-06 09:54N 28°56' W 013°34'2 5.5
2017-Sep-06 09:30N 28°58' W 013°32'0 0.0
2017-Sep-04 14:37N 28°58' W 013°32'0 0.0
2017-Sep-04 14:25N 28°58' W 013°32'0 0.0
2017-Sep-04 13:55N 28°58' W 013°32'  
Track history (hours):
 
Tides and Currents Weather Stations Pressure Air Temp Water Temp Dewpoint Dewpoint Depression Visibility Wind Speed Wind Dir Waves Ship Positions

Mojo_ii

Last reported at 2017-Sep-14 13:30 UTC. Time now 2017-Sep-24 03:36 UTC.
Position N 28°26' W 016°13'.
Warning: this ship's position is 9 days out of date.

Type: Sailing vessel. MMSI: 227185390.

Date/timePositionNaut miles runAvg speedWind from/ knotsBaromVisibWave heightAir tempDewpointWater temp
2017-Sep-14 13:30N 28°26' W 016°13'35 1.8
2017-Sep-13 17:45N 28°11' W 015°37'3 6.6
2017-Sep-13 17:17N 28°11' W 015°34'2 6.3
2017-Sep-13 16:57N 28°11' W 015°32'3 6.1
2017-Sep-13 16:28N 28°12' W 015°28'3 5.5
2017-Sep-13 15:56N 28°12' W 015°25'3 5.8
2017-Sep-13 15:26N 28°11' W 015°22'3 5.2
2017-Sep-13 14:55N 28°11' W 015°19'3 5.5
2017-Sep-13 14:25N 28°10' W 015°16'2 5.6
2017-Sep-13 14:01N 28°10' W 015°13'3 5.6
2017-Sep-13 13:30N 28°09' W 015°10'3 5.4
2017-Sep-13 13:00N 28°09' W 015°07'3 5.3
2017-Sep-13 12:30N 28°08' W 015°04'3 5.5
2017-Sep-13 12:00N 28°08' W 015°01'3 5.7
2017-Sep-13 11:30N 28°08' W 014°58'3 5.8
2017-Sep-13 11:00N 28°07' W 014°54'3 5.7
2017-Sep-13 10:30N 28°07' W 014°51'  
2017-Sep-06 10:40N 28°54' W 013°39'1 6.8
2017-Sep-06 10:28N 28°54' W 013°37'4 6.9
2017-Sep-06 09:54N 28°56' W 013°34'2 5.5
2017-Sep-06 09:30N 28°58' W 013°32'0 0.0
2017-Sep-04 14:37N 28°58' W 013°32'0 0.0
2017-Sep-04 14:25N 28°58' W 013°32'0 0.0
2017-Sep-04 13:55N 28°58' W 013°32'  

Dump ship's entire track history